sensor_id;sensor_type;location;lat;lon;timestamp;P1;durP1;ratioP1;P2;durP2;ratioP2
41946;SDS011;27638;42.184;24.848;2023-02-15T00:01:24;19.88;;;10.25;;
41946;SDS011;27638;42.184;24.848;2023-02-15T00:03:50;16.70;;;11.02;;
41946;SDS011;27638;42.184;24.848;2023-02-15T00:06:16;15.43;;;9.82;;
41946;SDS011;27638;42.184;24.848;2023-02-15T00:08:41;20.85;;;10.93;;
41946;SDS011;27638;42.184;24.848;2023-02-15T00:11:08;20.48;;;11.40;;
41946;SDS011;27638;42.184;24.848;2023-02-15T00:13:41;19.58;;;10.75;;
41946;SDS011;27638;42.184;24.848;2023-02-15T00:16:08;21.17;;;11.90;;
41946;SDS011;27638;42.184;24.848;2023-02-15T00:18:36;19.92;;;11.45;;
41946;SDS011;27638;42.184;24.848;2023-02-15T00:21:05;22.75;;;11.98;;
41946;SDS011;27638;42.184;24.848;2023-02-15T00:23:32;18.63;;;11.75;;
41946;SDS011;27638;42.184;24.848;2023-02-15T00:26:08;20.92;;;12.93;;
41946;SDS011;27638;42.184;24.848;2023-02-15T00:28:35;22.95;;;11.63;;
41946;SDS011;27638;42.184;24.848;2023-02-15T00:31:04;26.60;;;12.80;;
41946;SDS011;27638;42.184;24.848;2023-02-15T00:33:34;18.60;;;11.25;;
41946;SDS011;27638;42.184;24.848;2023-02-15T00:36:00;22.58;;;13.27;;
41946;SDS011;27638;42.184;24.848;2023-02-15T00:38:27;25.40;;;12.90;;
41946;SDS011;27638;42.184;24.848;2023-02-15T00:40:54;23.80;;;12.80;;
41946;SDS011;27638;42.184;24.848;2023-02-15T00:43:20;21.42;;;11.98;;
41946;SDS011;27638;42.184;24.848;2023-02-15T00:45:46;20.83;;;11.85;;
41946;SDS011;27638;42.184;24.848;2023-02-15T00:48:12;19.48;;;12.23;;
41946;SDS011;27638;42.184;24.848;2023-02-15T00:50:37;22.17;;;12.93;;
41946;SDS011;27638;42.184;24.848;2023-02-15T00:53:03;24.60;;;13.50;;
41946;SDS011;27638;42.184;24.848;2023-02-15T00:55:28;22.40;;;12.45;;
41946;SDS011;27638;42.184;24.848;2023-02-15T00:57:54;23.05;;;12.73;;
41946;SDS011;27638;42.184;24.848;2023-02-15T01:00:19;24.38;;;13.27;;
41946;SDS011;27638;42.184;24.848;2023-02-15T01:02:45;23.30;;;12.32;;
41946;SDS011;27638;42.184;24.848;2023-02-15T01:05:10;23.90;;;13.30;;
41946;SDS011;27638;42.184;24.848;2023-02-15T01:07:35;23.60;;;13.15;;
41946;SDS011;27638;42.184;24.848;2023-02-15T01:10:01;21.60;;;13.80;;
41946;SDS011;27638;42.184;24.848;2023-02-15T01:12:26;23.80;;;12.93;;
41946;SDS011;27638;42.184;24.848;2023-02-15T01:14:52;21.25;;;13.05;;
41946;SDS011;27638;42.184;24.848;2023-02-15T01:17:17;24.05;;;12.55;;
41946;SDS011;27638;42.184;24.848;2023-02-15T01:19:43;24.48;;;12.35;;
41946;SDS011;27638;42.184;24.848;2023-02-15T01:22:08;22.85;;;13.45;;
41946;SDS011;27638;42.184;24.848;2023-02-15T01:24:34;22.85;;;12.77;;
41946;SDS011;27638;42.184;24.848;2023-02-15T01:26:59;25.35;;;13.70;;
41946;SDS011;27638;42.184;24.848;2023-02-15T01:29:24;21.80;;;12.48;;
41946;SDS011;27638;42.184;24.848;2023-02-15T01:31:50;25.33;;;13.35;;
41946;SDS011;27638;42.184;24.848;2023-02-15T01:34:15;25.00;;;14.05;;
41946;SDS011;27638;42.184;24.848;2023-02-15T01:36:41;27.58;;;13.65;;
41946;SDS011;27638;42.184;24.848;2023-02-15T01:39:06;31.25;;;14.45;;
41946;SDS011;27638;42.184;24.848;2023-02-15T01:41:32;23.70;;;13.70;;
41946;SDS011;27638;42.184;24.848;2023-02-15T01:43:59;26.65;;;14.18;;
41946;SDS011;27638;42.184;24.848;2023-02-15T01:46:27;25.60;;;13.65;;
41946;SDS011;27638;42.184;24.848;2023-02-15T01:49:09;29.25;;;15.15;;
41946;SDS011;27638;42.184;24.848;2023-02-15T01:51:39;25.45;;;14.60;;
41946;SDS011;27638;42.184;24.848;2023-02-15T01:54:21;28.38;;;15.30;;
41946;SDS011;27638;42.184;24.848;2023-02-15T01:57:08;27.75;;;14.43;;
41946;SDS011;27638;42.184;24.848;2023-02-15T01:59:37;28.42;;;14.35;;
41946;SDS011;27638;42.184;24.848;2023-02-15T02:02:04;27.23;;;14.13;;
41946;SDS011;27638;42.184;24.848;2023-02-15T02:07:02;26.65;;;13.98;;
41946;SDS011;27638;42.184;24.848;2023-02-15T02:09:31;29.17;;;14.98;;
41946;SDS011;27638;42.184;24.848;2023-02-15T02:11:57;30.60;;;15.63;;
41946;SDS011;27638;42.184;24.848;2023-02-15T02:14:23;32.42;;;14.85;;
41946;SDS011;27638;42.184;24.848;2023-02-15T02:16:57;26.13;;;14.63;;
41946;SDS011;27638;42.184;24.848;2023-02-15T02:22:46;31.35;;;15.30;;
41946;SDS011;27638;42.184;24.848;2023-02-15T02:33:54;33.38;;;15.52;;
41946;SDS011;27638;42.184;24.848;2023-02-15T02:36:49;29.50;;;15.38;;
41946;SDS011;27638;42.184;24.848;2023-02-15T02:41:55;29.77;;;14.30;;
41946;SDS011;27638;42.184;24.848;2023-02-15T02:47:40;27.70;;;13.38;;
41946;SDS011;27638;42.184;24.848;2023-02-15T02:50:16;28.33;;;13.57;;
41946;SDS011;27638;42.184;24.848;2023-02-15T02:52:54;25.30;;;13.95;;
41946;SDS011;27638;42.184;24.848;2023-02-15T02:55:25;24.40;;;13.52;;
41946;SDS011;27638;42.184;24.848;2023-02-15T02:58:17;26.00;;;13.02;;
41946;SDS011;27638;42.184;24.848;2023-02-15T03:00:50;24.70;;;13.20;;
41946;SDS011;27638;42.184;24.848;2023-02-15T03:05:53;28.10;;;13.70;;
41946;SDS011;27638;42.184;24.848;2023-02-15T03:08:22;31.17;;;15.05;;
41946;SDS011;27638;42.184;24.848;2023-02-15T03:10:53;34.78;;;16.35;;
41946;SDS011;27638;42.184;24.848;2023-02-15T03:13:22;30.50;;;15.32;;
41946;SDS011;27638;42.184;24.848;2023-02-15T03:15:48;52.67;;;23.02;;
41946;SDS011;27638;42.184;24.848;2023-02-15T03:18:35;28.95;;;14.90;;
41946;SDS011;27638;42.184;24.848;2023-02-15T03:21:06;32.78;;;16.73;;
41946;SDS011;27638;42.184;24.848;2023-02-15T03:23:33;32.22;;;16.05;;
41946;SDS011;27638;42.184;24.848;2023-02-15T03:26:03;30.02;;;15.60;;
41946;SDS011;27638;42.184;24.848;2023-02-15T03:28:35;33.97;;;15.88;;
41946;SDS011;27638;42.184;24.848;2023-02-15T03:31:05;31.65;;;16.05;;
41946;SDS011;27638;42.184;24.848;2023-02-15T03:33:34;29.98;;;16.33;;
41946;SDS011;27638;42.184;24.848;2023-02-15T03:39:02;29.70;;;14.82;;
41946;SDS011;27638;42.184;24.848;2023-02-15T03:41:32;25.30;;;13.98;;
41946;SDS011;27638;42.184;24.848;2023-02-15T03:44:06;24.88;;;14.23;;
41946;SDS011;27638;42.184;24.848;2023-02-15T03:46:52;27.48;;;14.77;;
41946;SDS011;27638;42.184;24.848;2023-02-15T03:49:26;34.60;;;16.13;;
41946;SDS011;27638;42.184;24.848;2023-02-15T03:51:57;33.20;;;16.83;;
41946;SDS011;27638;42.184;24.848;2023-02-15T03:54:28;30.90;;;15.55;;
41946;SDS011;27638;42.184;24.848;2023-02-15T03:57:19;31.60;;;16.67;;
41946;SDS011;27638;42.184;24.848;2023-02-15T04:00:18;28.75;;;14.40;;
41946;SDS011;27638;42.184;24.848;2023-02-15T04:03:11;29.98;;;15.15;;
41946;SDS011;27638;42.184;24.848;2023-02-15T04:05:38;27.67;;;15.65;;
41946;SDS011;27638;42.184;24.848;2023-02-15T04:08:04;33.08;;;16.27;;
41946;SDS011;27638;42.184;24.848;2023-02-15T04:10:29;30.83;;;15.93;;
41946;SDS011;27638;42.184;24.848;2023-02-15T04:13:13;43.85;;;20.58;;
41946;SDS011;27638;42.184;24.848;2023-02-15T04:15:39;52.03;;;25.92;;
41946;SDS011;27638;42.184;24.848;2023-02-15T04:18:23;156.05;;;61.55;;
41946;SDS011;27638;42.184;24.848;2023-02-15T04:21:06;81.47;;;35.13;;
41946;SDS011;27638;42.184;24.848;2023-02-15T04:23:50;52.47;;;22.92;;
41946;SDS011;27638;42.184;24.848;2023-02-15T04:26:34;67.30;;;28.80;;
41946;SDS011;27638;42.184;24.848;2023-02-15T04:29:00;48.50;;;21.88;;
41946;SDS011;27638;42.184;24.848;2023-02-15T04:31:25;45.17;;;21.70;;
41946;SDS011;27638;42.184;24.848;2023-02-15T04:33:51;55.38;;;22.30;;
41946;SDS011;27638;42.184;24.848;2023-02-15T04:36:16;67.72;;;28.77;;
41946;SDS011;27638;42.184;24.848;2023-02-15T04:38:41;64.07;;;28.60;;
41946;SDS011;27638;42.184;24.848;2023-02-15T04:41:07;49.78;;;21.48;;
41946;SDS011;27638;42.184;24.848;2023-02-15T04:43:32;37.83;;;19.42;;
41946;SDS011;27638;42.184;24.848;2023-02-15T04:45:58;43.67;;;20.83;;
41946;SDS011;27638;42.184;24.848;2023-02-15T04:48:23;36.42;;;18.73;;
41946;SDS011;27638;42.184;24.848;2023-02-15T04:50:49;37.53;;;19.08;;
41946;SDS011;27638;42.184;24.848;2023-02-15T04:53:14;34.97;;;18.48;;
41946;SDS011;27638;42.184;24.848;2023-02-15T04:55:42;28.48;;;16.48;;
41946;SDS011;27638;42.184;24.848;2023-02-15T04:58:07;40.75;;;20.63;;
41946;SDS011;27638;42.184;24.848;2023-02-15T05:00:33;52.20;;;25.95;;
41946;SDS011;27638;42.184;24.848;2023-02-15T05:02:58;157.13;;;52.13;;
41946;SDS011;27638;42.184;24.848;2023-02-15T05:05:23;117.60;;;43.83;;
41946;SDS011;27638;42.184;24.848;2023-02-15T05:07:49;50.42;;;24.90;;
41946;SDS011;27638;42.184;24.848;2023-02-15T05:10:14;35.25;;;16.75;;
41946;SDS011;27638;42.184;24.848;2023-02-15T05:12:40;31.83;;;15.80;;
41946;SDS011;27638;42.184;24.848;2023-02-15T05:15:05;36.03;;;17.13;;
41946;SDS011;27638;42.184;24.848;2023-02-15T05:17:31;28.92;;;14.32;;
41946;SDS011;27638;42.184;24.848;2023-02-15T05:19:56;27.30;;;13.90;;
41946;SDS011;27638;42.184;24.848;2023-02-15T05:22:22;26.35;;;15.15;;
41946;SDS011;27638;42.184;24.848;2023-02-15T05:24:47;29.15;;;14.20;;
41946;SDS011;27638;42.184;24.848;2023-02-15T05:27:31;27.38;;;14.35;;
41946;SDS011;27638;42.184;24.848;2023-02-15T05:30:15;27.88;;;14.75;;
41946;SDS011;27638;42.184;24.848;2023-02-15T05:32:40;31.42;;;15.18;;
41946;SDS011;27638;42.184;24.848;2023-02-15T05:35:06;35.00;;;17.52;;
41946;SDS011;27638;42.184;24.848;2023-02-15T05:37:32;37.30;;;19.55;;
41946;SDS011;27638;42.184;24.848;2023-02-15T05:39:58;55.10;;;25.63;;
41946;SDS011;27638;42.184;24.848;2023-02-15T05:42:23;88.57;;;34.40;;
41946;SDS011;27638;42.184;24.848;2023-02-15T05:44:49;91.18;;;34.80;;
41946;SDS011;27638;42.184;24.848;2023-02-15T05:47:14;294.20;;;102.70;;
41946;SDS011;27638;42.184;24.848;2023-02-15T05:49:40;293.02;;;103.55;;
41946;SDS011;27638;42.184;24.848;2023-02-15T05:52:05;229.05;;;82.40;;
41946;SDS011;27638;42.184;24.848;2023-02-15T05:54:30;80.78;;;34.92;;
41946;SDS011;27638;42.184;24.848;2023-02-15T05:56:56;34.40;;;16.05;;
41946;SDS011;27638;42.184;24.848;2023-02-15T05:59:21;28.77;;;14.52;;
41946;SDS011;27638;42.184;24.848;2023-02-15T06:01:47;31.75;;;15.95;;
41946;SDS011;27638;42.184;24.848;2023-02-15T06:04:13;27.02;;;14.40;;
41946;SDS011;27638;42.184;24.848;2023-02-15T06:06:38;30.13;;;14.82;;
41946;SDS011;27638;42.184;24.848;2023-02-15T06:09:04;29.60;;;15.35;;
41946;SDS011;27638;42.184;24.848;2023-02-15T06:11:29;30.35;;;15.23;;
41946;SDS011;27638;42.184;24.848;2023-02-15T06:13:55;25.45;;;14.23;;
41946;SDS011;27638;42.184;24.848;2023-02-15T06:16:20;24.95;;;15.35;;
41946;SDS011;27638;42.184;24.848;2023-02-15T06:18:46;28.63;;;14.95;;
41946;SDS011;27638;42.184;24.848;2023-02-15T06:21:11;74.43;;;31.42;;
41946;SDS011;27638;42.184;24.848;2023-02-15T06:23:36;94.63;;;35.00;;
41946;SDS011;27638;42.184;24.848;2023-02-15T06:26:02;69.47;;;30.38;;
41946;SDS011;27638;42.184;24.848;2023-02-15T06:28:28;75.80;;;35.53;;
41946;SDS011;27638;42.184;24.848;2023-02-15T06:30:53;93.75;;;39.63;;
41946;SDS011;27638;42.184;24.848;2023-02-15T06:33:19;52.00;;;24.92;;
41946;SDS011;27638;42.184;24.848;2023-02-15T06:35:44;56.60;;;23.73;;
41946;SDS011;27638;42.184;24.848;2023-02-15T06:38:10;38.63;;;19.90;;
41946;SDS011;27638;42.184;24.848;2023-02-15T06:40:35;34.38;;;18.73;;
41946;SDS011;27638;42.184;24.848;2023-02-15T06:43:01;37.58;;;18.80;;
41946;SDS011;27638;42.184;24.848;2023-02-15T06:45:26;46.85;;;22.38;;
41946;SDS011;27638;42.184;24.848;2023-02-15T06:47:52;41.83;;;21.15;;
41946;SDS011;27638;42.184;24.848;2023-02-15T06:50:17;39.53;;;20.27;;
41946;SDS011;27638;42.184;24.848;2023-02-15T06:52:43;37.03;;;19.80;;
41946;SDS011;27638;42.184;24.848;2023-02-15T06:55:08;36.03;;;18.92;;
41946;SDS011;27638;42.184;24.848;2023-02-15T06:57:34;36.08;;;17.40;;
41946;SDS011;27638;42.184;24.848;2023-02-15T06:59:59;56.92;;;24.83;;
41946;SDS011;27638;42.184;24.848;2023-02-15T07:02:25;54.35;;;23.20;;
41946;SDS011;27638;42.184;24.848;2023-02-15T07:04:50;45.40;;;23.50;;
41946;SDS011;27638;42.184;24.848;2023-02-15T07:07:16;47.75;;;24.60;;
41946;SDS011;27638;42.184;24.848;2023-02-15T07:09:41;44.05;;;22.90;;
41946;SDS011;27638;42.184;24.848;2023-02-15T07:12:06;46.22;;;22.88;;
41946;SDS011;27638;42.184;24.848;2023-02-15T07:14:51;42.38;;;22.60;;
41946;SDS011;27638;42.184;24.848;2023-02-15T07:17:16;49.45;;;24.60;;
41946;SDS011;27638;42.184;24.848;2023-02-15T07:19:42;66.57;;;28.25;;
41946;SDS011;27638;42.184;24.848;2023-02-15T07:22:08;50.45;;;25.40;;
41946;SDS011;27638;42.184;24.848;2023-02-15T07:24:33;43.42;;;21.63;;
41946;SDS011;27638;42.184;24.848;2023-02-15T07:26:59;52.00;;;24.25;;
41946;SDS011;27638;42.184;24.848;2023-02-15T07:29:24;43.95;;;23.10;;
41946;SDS011;27638;42.184;24.848;2023-02-15T07:31:50;39.88;;;20.67;;
41946;SDS011;27638;42.184;24.848;2023-02-15T07:34:15;40.28;;;21.67;;
41946;SDS011;27638;42.184;24.848;2023-02-15T07:36:41;36.55;;;21.40;;
41946;SDS011;27638;42.184;24.848;2023-02-15T07:39:07;45.65;;;21.80;;
41946;SDS011;27638;42.184;24.848;2023-02-15T07:41:33;43.72;;;22.83;;
41946;SDS011;27638;42.184;24.848;2023-02-15T07:43:58;43.08;;;21.60;;
41946;SDS011;27638;42.184;24.848;2023-02-15T07:46:24;41.35;;;19.95;;
41946;SDS011;27638;42.184;24.848;2023-02-15T07:48:49;43.15;;;20.02;;
41946;SDS011;27638;42.184;24.848;2023-02-15T07:51:14;35.40;;;18.73;;
41946;SDS011;27638;42.184;24.848;2023-02-15T07:53:41;37.45;;;18.92;;
41946;SDS011;27638;42.184;24.848;2023-02-15T07:56:11;36.35;;;18.67;;
41946;SDS011;27638;42.184;24.848;2023-02-15T07:58:37;36.25;;;18.20;;
41946;SDS011;27638;42.184;24.848;2023-02-15T08:01:25;41.47;;;20.00;;
41946;SDS011;27638;42.184;24.848;2023-02-15T08:04:01;37.22;;;18.77;;
41946;SDS011;27638;42.184;24.848;2023-02-15T08:06:30;33.95;;;17.55;;
41946;SDS011;27638;42.184;24.848;2023-02-15T08:08:57;31.52;;;17.45;;
41946;SDS011;27638;42.184;24.848;2023-02-15T08:14:32;32.42;;;16.70;;
41946;SDS011;27638;42.184;24.848;2023-02-15T08:21:38;33.60;;;18.52;;
41946;SDS011;27638;42.184;24.848;2023-02-15T08:24:06;48.85;;;22.90;;
41946;SDS011;27638;42.184;24.848;2023-02-15T08:26:33;40.30;;;20.10;;
41946;SDS011;27638;42.184;24.848;2023-02-15T08:28:59;30.73;;;17.23;;
41946;SDS011;27638;42.184;24.848;2023-02-15T08:31:25;31.05;;;18.27;;
41946;SDS011;27638;42.184;24.848;2023-02-15T08:33:51;28.67;;;14.52;;
41946;SDS011;27638;42.184;24.848;2023-02-15T08:36:19;25.30;;;14.15;;
41946;SDS011;27638;42.184;24.848;2023-02-15T08:38:47;21.90;;;14.32;;
41946;SDS011;27638;42.184;24.848;2023-02-15T08:43:38;30.20;;;13.77;;
41946;SDS011;27638;42.184;24.848;2023-02-15T08:46:04;27.45;;;14.20;;
41946;SDS011;27638;42.184;24.848;2023-02-15T08:48:31;26.95;;;15.32;;
41946;SDS011;27638;42.184;24.848;2023-02-15T08:50:56;22.30;;;13.65;;
41946;SDS011;27638;42.184;24.848;2023-02-15T08:53:22;23.75;;;14.25;;
41946;SDS011;27638;42.184;24.848;2023-02-15T08:55:54;21.08;;;12.10;;
41946;SDS011;27638;42.184;24.848;2023-02-15T08:58:24;23.75;;;13.73;;
41946;SDS011;27638;42.184;24.848;2023-02-15T09:00:50;26.30;;;15.00;;
41946;SDS011;27638;42.184;24.848;2023-02-15T09:03:15;18.83;;;11.68;;
41946;SDS011;27638;42.184;24.848;2023-02-15T09:05:41;26.00;;;14.07;;
41946;SDS011;27638;42.184;24.848;2023-02-15T09:08:07;21.48;;;13.13;;
41946;SDS011;27638;42.184;24.848;2023-02-15T09:10:32;27.30;;;13.65;;
41946;SDS011;27638;42.184;24.848;2023-02-15T09:12:57;22.30;;;13.25;;
41946;SDS011;27638;42.184;24.848;2023-02-15T09:15:23;22.23;;;13.25;;
41946;SDS011;27638;42.184;24.848;2023-02-15T09:17:48;23.60;;;13.73;;
41946;SDS011;27638;42.184;24.848;2023-02-15T09:20:14;24.95;;;13.30;;
41946;SDS011;27638;42.184;24.848;2023-02-15T09:22:39;18.88;;;12.02;;
41946;SDS011;27638;42.184;24.848;2023-02-15T09:25:05;22.83;;;13.38;;
41946;SDS011;27638;42.184;24.848;2023-02-15T09:27:30;25.05;;;14.10;;
41946;SDS011;27638;42.184;24.848;2023-02-15T09:29:56;24.48;;;14.40;;
41946;SDS011;27638;42.184;24.848;2023-02-15T09:32:21;20.50;;;12.43;;
41946;SDS011;27638;42.184;24.848;2023-02-15T09:34:47;23.73;;;13.23;;
41946;SDS011;27638;42.184;24.848;2023-02-15T09:37:13;19.63;;;13.25;;
41946;SDS011;27638;42.184;24.848;2023-02-15T09:39:39;25.92;;;13.60;;
41946;SDS011;27638;42.184;24.848;2023-02-15T10:06:40;24.95;;;13.70;;
41946;SDS011;27638;42.184;24.848;2023-02-15T10:15:10;20.60;;;13.05;;
41946;SDS011;27638;42.184;24.848;2023-02-15T10:20:33;28.67;;;14.32;;
41946;SDS011;27638;42.184;24.848;2023-02-15T10:25:48;21.92;;;12.43;;
41946;SDS011;27638;42.184;24.848;2023-02-15T10:28:28;22.10;;;11.93;;
41946;SDS011;27638;42.184;24.848;2023-02-15T10:31:11;19.70;;;11.85;;
41946;SDS011;27638;42.184;24.848;2023-02-15T10:33:41;19.60;;;12.40;;
41946;SDS011;27638;42.184;24.848;2023-02-15T10:36:15;24.38;;;14.27;;
41946;SDS011;27638;42.184;24.848;2023-02-15T10:55:45;21.85;;;11.10;;
41946;SDS011;27638;42.184;24.848;2023-02-15T10:58:29;23.63;;;13.18;;
41946;SDS011;27638;42.184;24.848;2023-02-15T11:06:30;23.48;;;12.52;;
41946;SDS011;27638;42.184;24.848;2023-02-15T11:09:03;24.50;;;13.07;;
41946;SDS011;27638;42.184;24.848;2023-02-15T11:11:38;22.08;;;12.40;;
41946;SDS011;27638;42.184;24.848;2023-02-15T11:14:15;19.13;;;11.48;;
41946;SDS011;27638;42.184;24.848;2023-02-15T11:16:49;17.13;;;10.95;;
41946;SDS011;27638;42.184;24.848;2023-02-15T11:21:50;22.77;;;12.52;;
41946;SDS011;27638;42.184;24.848;2023-02-15T11:24:20;22.08;;;12.25;;
41946;SDS011;27638;42.184;24.848;2023-02-15T11:26:51;23.60;;;14.00;;
41946;SDS011;27638;42.184;24.848;2023-02-15T11:29:26;25.00;;;12.18;;
41946;SDS011;27638;42.184;24.848;2023-02-15T11:32:02;18.98;;;12.10;;
41946;SDS011;27638;42.184;24.848;2023-02-15T11:34:40;21.50;;;12.20;;
41946;SDS011;27638;42.184;24.848;2023-02-15T11:37:16;21.65;;;12.70;;
41946;SDS011;27638;42.184;24.848;2023-02-15T11:39:48;22.52;;;12.70;;
41946;SDS011;27638;42.184;24.848;2023-02-15T11:42:18;19.13;;;11.68;;
41946;SDS011;27638;42.184;24.848;2023-02-15T11:47:44;18.70;;;10.82;;
41946;SDS011;27638;42.184;24.848;2023-02-15T11:50:16;17.42;;;10.57;;
41946;SDS011;27638;42.184;24.848;2023-02-15T11:52:47;22.08;;;13.20;;
41946;SDS011;27638;42.184;24.848;2023-02-15T11:55:16;21.30;;;11.57;;
41946;SDS011;27638;42.184;24.848;2023-02-15T11:57:47;18.95;;;11.65;;
41946;SDS011;27638;42.184;24.848;2023-02-15T12:00:31;19.08;;;11.25;;
41946;SDS011;27638;42.184;24.848;2023-02-15T12:03:02;19.52;;;12.02;;
41946;SDS011;27638;42.184;24.848;2023-02-15T12:05:34;18.17;;;10.83;;
41946;SDS011;27638;42.184;24.848;2023-02-15T12:08:02;17.35;;;10.45;;
41946;SDS011;27638;42.184;24.848;2023-02-15T12:10:36;18.67;;;12.10;;
41946;SDS011;27638;42.184;24.848;2023-02-15T12:15:34;25.63;;;12.65;;
41946;SDS011;27638;42.184;24.848;2023-02-15T12:18:00;19.30;;;10.70;;
41946;SDS011;27638;42.184;24.848;2023-02-15T12:20:29;14.95;;;9.65;;
41946;SDS011;27638;42.184;24.848;2023-02-15T12:23:01;17.08;;;10.57;;
41946;SDS011;27638;42.184;24.848;2023-02-15T12:25:33;17.58;;;10.57;;
41946;SDS011;27638;42.184;24.848;2023-02-15T12:28:02;15.88;;;10.15;;
41946;SDS011;27638;42.184;24.848;2023-02-15T12:30:34;30.05;;;13.57;;
41946;SDS011;27638;42.184;24.848;2023-02-15T12:38:35;16.02;;;10.57;;
41946;SDS011;27638;42.184;24.848;2023-02-15T12:41:02;16.50;;;9.68;;
41946;SDS011;27638;42.184;24.848;2023-02-15T12:46:43;13.95;;;9.32;;
41946;SDS011;27638;42.184;24.848;2023-02-15T12:49:04;17.80;;;10.00;;
41946;SDS011;27638;42.184;24.848;2023-02-15T12:51:51;15.82;;;9.35;;
41946;SDS011;27638;42.184;24.848;2023-02-15T12:56:49;16.48;;;10.00;;
41946;SDS011;27638;42.184;24.848;2023-02-15T12:59:15;18.02;;;10.23;;
41946;SDS011;27638;42.184;24.848;2023-02-15T13:01:47;13.82;;;8.95;;
41946;SDS011;27638;42.184;24.848;2023-02-15T13:04:23;16.20;;;8.98;;
41946;SDS011;27638;42.184;24.848;2023-02-15T13:07:01;16.90;;;10.48;;
41946;SDS011;27638;42.184;24.848;2023-02-15T13:11:56;15.35;;;9.50;;
41946;SDS011;27638;42.184;24.848;2023-02-15T13:14:34;16.13;;;9.60;;
41946;SDS011;27638;42.184;24.848;2023-02-15T13:17:02;16.90;;;10.40;;
41946;SDS011;27638;42.184;24.848;2023-02-15T13:19:51;19.20;;;9.45;;
41946;SDS011;27638;42.184;24.848;2023-02-15T13:22:18;15.65;;;10.57;;
41946;SDS011;27638;42.184;24.848;2023-02-15T13:24:55;15.98;;;9.70;;
41946;SDS011;27638;42.184;24.848;2023-02-15T13:27:24;16.48;;;9.95;;
41946;SDS011;27638;42.184;24.848;2023-02-15T13:29:59;14.85;;;8.95;;
41946;SDS011;27638;42.184;24.848;2023-02-15T13:34:57;16.17;;;10.05;;
41946;SDS011;27638;42.184;24.848;2023-02-15T13:40:43;22.80;;;11.43;;
41946;SDS011;27638;42.184;24.848;2023-02-15T13:51:13;16.13;;;8.40;;
41946;SDS011;27638;42.184;24.848;2023-02-15T13:54:05;15.93;;;10.43;;
41946;SDS011;27638;42.184;24.848;2023-02-15T13:59:41;14.20;;;9.20;;
41946;SDS011;27638;42.184;24.848;2023-02-15T14:11:19;14.82;;;10.20;;
41946;SDS011;27638;42.184;24.848;2023-02-15T14:13:58;15.68;;;10.25;;
41946;SDS011;27638;42.184;24.848;2023-02-15T14:22:39;13.75;;;9.40;;
41946;SDS011;27638;42.184;24.848;2023-02-15T14:25:24;15.73;;;8.70;;
41946;SDS011;27638;42.184;24.848;2023-02-15T14:30:23;15.43;;;7.97;;
41946;SDS011;27638;42.184;24.848;2023-02-15T14:32:54;15.85;;;9.23;;
41946;SDS011;27638;42.184;24.848;2023-02-15T14:35:26;30.35;;;15.52;;
41946;SDS011;27638;42.184;24.848;2023-02-15T14:46:34;13.18;;;8.55;;
41946;SDS011;27638;42.184;24.848;2023-02-15T14:54:10;13.25;;;8.45;;
41946;SDS011;27638;42.184;24.848;2023-02-15T14:59:26;14.25;;;8.32;;
41946;SDS011;27638;42.184;24.848;2023-02-15T15:04:39;12.70;;;8.27;;
41946;SDS011;27638;42.184;24.848;2023-02-15T15:07:23;16.27;;;8.30;;
41946;SDS011;27638;42.184;24.848;2023-02-15T15:12:46;14.52;;;8.63;;
41946;SDS011;27638;42.184;24.848;2023-02-15T15:15:34;15.60;;;9.18;;
41946;SDS011;27638;42.184;24.848;2023-02-15T15:25:42;16.88;;;11.07;;
41946;SDS011;27638;42.184;24.848;2023-02-15T15:28:08;17.30;;;10.20;;
41946;SDS011;27638;42.184;24.848;2023-02-15T15:49:47;16.35;;;9.45;;
41946;SDS011;27638;42.184;24.848;2023-02-15T15:52:14;17.17;;;9.43;;
41946;SDS011;27638;42.184;24.848;2023-02-15T15:54:42;14.95;;;9.18;;
41946;SDS011;27638;42.184;24.848;2023-02-15T15:57:21;15.45;;;9.57;;
41946;SDS011;27638;42.184;24.848;2023-02-15T15:59:54;20.00;;;10.73;;
41946;SDS011;27638;42.184;24.848;2023-02-15T16:02:23;27.38;;;12.18;;
41946;SDS011;27638;42.184;24.848;2023-02-15T16:04:49;35.97;;;11.77;;
41946;SDS011;27638;42.184;24.848;2023-02-15T16:09:56;35.90;;;13.60;;
41946;SDS011;27638;42.184;24.848;2023-02-15T16:12:23;77.07;;;36.13;;
41946;SDS011;27638;42.184;24.848;2023-02-15T16:14:51;87.95;;;40.35;;
41946;SDS011;27638;42.184;24.848;2023-02-15T16:17:28;118.32;;;53.63;;
41946;SDS011;27638;42.184;24.848;2023-02-15T16:22:47;142.38;;;69.60;;
41946;SDS011;27638;42.184;24.848;2023-02-15T16:25:24;166.57;;;79.25;;
41946;SDS011;27638;42.184;24.848;2023-02-15T16:28:06;122.35;;;57.30;;
41946;SDS011;27638;42.184;24.848;2023-02-15T16:30:34;112.20;;;55.88;;
41946;SDS011;27638;42.184;24.848;2023-02-15T16:35:35;89.30;;;44.17;;
41946;SDS011;27638;42.184;24.848;2023-02-15T16:38:02;89.93;;;48.78;;
41946;SDS011;27638;42.184;24.848;2023-02-15T16:40:48;85.85;;;50.58;;
41946;SDS011;27638;42.184;24.848;2023-02-15T16:43:20;105.70;;;56.28;;
41946;SDS011;27638;42.184;24.848;2023-02-15T16:45:49;126.80;;;67.25;;
41946;SDS011;27638;42.184;24.848;2023-02-15T16:48:22;121.25;;;61.17;;
41946;SDS011;27638;42.184;24.848;2023-02-15T16:50:53;123.90;;;60.70;;
41946;SDS011;27638;42.184;24.848;2023-02-15T16:53:22;129.85;;;67.88;;
41946;SDS011;27638;42.184;24.848;2023-02-15T16:55:52;99.38;;;53.55;;
41946;SDS011;27638;42.184;24.848;2023-02-15T16:58:22;108.65;;;53.92;;
41946;SDS011;27638;42.184;24.848;2023-02-15T17:00:54;90.70;;;49.13;;
41946;SDS011;27638;42.184;24.848;2023-02-15T17:03:23;96.40;;;48.22;;
41946;SDS011;27638;42.184;24.848;2023-02-15T17:05:50;89.28;;;46.67;;
41946;SDS011;27638;42.184;24.848;2023-02-15T17:09:03;88.32;;;42.45;;
41946;SDS011;27638;42.184;24.848;2023-02-15T17:13:37;60.65;;;30.90;;
41946;SDS011;27638;42.184;24.848;2023-02-15T17:21:12;46.90;;;23.75;;
41946;SDS011;27638;42.184;24.848;2023-02-15T17:23:43;50.25;;;23.95;;
41946;SDS011;27638;42.184;24.848;2023-02-15T17:28:48;50.75;;;27.38;;
41946;SDS011;27638;42.184;24.848;2023-02-15T17:31:16;49.55;;;26.92;;
41946;SDS011;27638;42.184;24.848;2023-02-15T17:33:44;49.88;;;26.85;;
41946;SDS011;27638;42.184;24.848;2023-02-15T17:36:16;58.17;;;31.10;;
41946;SDS011;27638;42.184;24.848;2023-02-15T17:41:21;73.75;;;41.33;;
41946;SDS011;27638;42.184;24.848;2023-02-15T17:43:51;58.13;;;35.60;;
41946;SDS011;27638;42.184;24.848;2023-02-15T17:46:16;77.22;;;39.28;;
41946;SDS011;27638;42.184;24.848;2023-02-15T17:48:45;61.67;;;33.42;;
41946;SDS011;27638;42.184;24.848;2023-02-15T17:51:12;62.35;;;32.72;;
41946;SDS011;27638;42.184;24.848;2023-02-15T17:53:39;52.75;;;29.13;;
41946;SDS011;27638;42.184;24.848;2023-02-15T17:56:05;31.73;;;16.75;;
41946;SDS011;27638;42.184;24.848;2023-02-15T17:58:39;34.25;;;18.10;;
41946;SDS011;27638;42.184;24.848;2023-02-15T18:01:10;62.30;;;27.63;;
41946;SDS011;27638;42.184;24.848;2023-02-15T18:04:00;89.93;;;36.38;;